Terminal Aerodrome Forecast
Issued by NWS

Home | Current Version | Previous Version | Text Only | Print | Product List | Glossary On
Versions: 1 2 3 4 5 6 7 8 9 10 11 12 13 14 15 16 17 18
000
FTUS43 KSGF 261131 AAA
TAFBBG
TAF AMD
KBBG 261131Z 2612/2712 00000KT P6SM BKN120
     FM262100 13004KT P6SM SCT110
     FM262200 11004KT P6SM BKN110
     FM270000 10004KT P6SM VCSH BKN110
     FM270600 00000KT P6SM BKN090=

USA.gov is the U.S. government's official web portal to all federal, state and local government web resources and services.